createdAt,value
2022-11-20T00:00:36.461Z,1008.86
2022-11-20T00:01:40.652Z,1008.83
2022-11-20T00:02:44.730Z,1008.81
2022-11-20T00:03:48.921Z,1008.82
2022-11-20T00:04:53.103Z,1008.83
2022-11-20T00:05:57.329Z,1008.81
2022-11-20T00:07:01.527Z,1008.83
2022-11-20T00:08:05.566Z,1008.82
2022-11-20T00:09:09.702Z,1008.80
2022-11-20T00:10:13.940Z,1008.82
2022-11-20T00:11:18.045Z,1008.83
2022-11-20T00:12:22.194Z,1008.85
2022-11-20T00:13:26.322Z,1008.85
2022-11-20T00:14:30.517Z,1008.83
2022-11-20T00:15:34.779Z,1008.85
2022-11-20T00:16:38.859Z,1008.83
2022-11-20T00:17:43.091Z,1008.85
2022-11-20T00:18:47.285Z,1008.82
2022-11-20T00:19:51.391Z,1008.84
2022-11-20T00:20:55.544Z,1008.85
2022-11-20T00:21:59.701Z,1008.83
2022-11-20T00:23:03.904Z,1008.83
2022-11-20T00:24:08.008Z,1008.84
2022-11-20T00:25:12.152Z,1008.82
2022-11-20T00:26:16.319Z,1008.82
2022-11-20T00:27:20.373Z,1008.84
2022-11-20T00:28:24.569Z,1008.85
2022-11-20T00:29:28.682Z,1008.84
2022-11-20T00:30:32.823Z,1008.85
2022-11-20T00:31:36.979Z,1008.85
2022-11-20T00:32:41.128Z,1008.87
2022-11-20T00:33:45.265Z,1008.90
2022-11-20T00:34:49.298Z,1008.90
2022-11-20T00:35:53.610Z,1008.90
2022-11-20T00:36:57.838Z,1008.91
2022-11-20T00:38:01.909Z,1008.91
2022-11-20T00:39:06.140Z,1008.89
2022-11-20T00:40:10.231Z,1008.89
2022-11-20T00:41:14.364Z,1008.88
2022-11-20T00:42:18.505Z,1008.87
2022-11-20T00:43:22.654Z,1008.87
2022-11-20T00:44:26.698Z,1008.86
2022-11-20T00:45:30.941Z,1008.87
2022-11-20T00:46:35.062Z,1008.87
2022-11-20T00:47:39.225Z,1008.85
2022-11-20T00:48:43.488Z,1008.85
2022-11-20T00:49:47.610Z,1008.85
2022-11-20T00:50:51.856Z,1008.85
2022-11-20T00:51:55.959Z,1008.83
2022-11-20T00:53:00.142Z,1008.83
2022-11-20T00:54:04.257Z,1008.82
2022-11-20T00:55:08.416Z,1008.82
2022-11-20T00:56:12.670Z,1008.83
2022-11-20T00:57:16.862Z,1008.81
2022-11-20T00:58:21.059Z,1008.84
2022-11-20T00:59:25.156Z,1008.83
2022-11-20T01:00:29.327Z,1008.85
2022-11-20T01:01:33.546Z,1008.86
2022-11-20T01:02:37.683Z,1008.85
2022-11-20T01:03:41.678Z,1008.85
2022-11-20T01:04:45.951Z,1008.81
2022-11-20T01:05:49.919Z,1008.80
2022-11-20T01:06:54.096Z,1008.77
2022-11-20T01:07:58.253Z,1008.78
2022-11-20T01:09:02.538Z,1008.79
2022-11-20T01:10:06.567Z,1008.78
2022-11-20T01:11:10.763Z,1008.77
2022-11-20T01:12:15.053Z,1008.78
2022-11-20T01:13:22.915Z,1008.77
2022-11-20T01:14:23.142Z,1008.76
2022-11-20T01:15:27.365Z,1008.77
2022-11-20T01:16:31.517Z,1008.78
2022-11-20T01:17:35.737Z,1008.74
2022-11-20T01:18:39.732Z,1008.75
2022-11-20T01:19:43.966Z,1008.75
2022-11-20T01:20:48.154Z,1008.75
2022-11-20T01:21:52.303Z,1008.73
2022-11-20T01:22:56.466Z,1008.73
2022-11-20T01:24:00.611Z,1008.71
2022-11-20T01:25:04.721Z,1008.69
2022-11-20T01:26:08.991Z,1008.68
2022-11-20T01:27:13.100Z,1008.70
2022-11-20T01:28:17.235Z,1008.71
2022-11-20T01:29:21.725Z,1008.67
2022-11-20T01:30:25.542Z,1008.65
2022-11-20T01:31:29.686Z,1008.63
2022-11-20T01:32:33.837Z,1008.62
2022-11-20T01:33:37.989Z,1008.63
2022-11-20T01:34:42.248Z,1008.61
2022-11-20T01:35:46.462Z,1008.61
2022-11-20T01:36:50.514Z,1008.63
2022-11-20T01:37:54.641Z,1008.63
2022-11-20T01:38:58.875Z,1008.61
2022-11-20T01:40:02.948Z,1008.63
2022-11-20T01:41:07.063Z,1008.64
2022-11-20T01:42:11.291Z,1008.63
2022-11-20T01:43:15.480Z,1008.59
2022-11-20T01:44:19.567Z,1008.60
2022-11-20T01:45:23.726Z,1008.60
2022-11-20T01:46:27.817Z,1008.60
2022-11-20T01:47:31.972Z,1008.59
2022-11-20T01:48:36.126Z,1008.58
2022-11-20T01:49:40.361Z,1008.58
2022-11-20T01:50:44.463Z,1008.56
2022-11-20T01:51:48.630Z,1008.54
2022-11-20T01:52:52.699Z,1008.53
2022-11-20T01:53:56.870Z,1008.50
2022-11-20T01:55:01.037Z,1008.50
2022-11-20T01:56:05.260Z,1008.49
2022-11-20T01:57:09.377Z,1008.49
2022-11-20T01:58:13.625Z,1008.52
2022-11-20T01:59:18.054Z,1008.52
2022-11-20T02:00:21.826Z,1008.50
2022-11-20T02:01:26.000Z,1008.49
2022-11-20T02:02:30.157Z,1008.49
2022-11-20T02:03:34.310Z,1008.48
2022-11-20T02:04:38.583Z,1008.45
2022-11-20T02:05:42.682Z,1008.43
2022-11-20T02:06:46.825Z,1008.44
2022-11-20T02:07:50.974Z,1008.45
2022-11-20T02:08:55.235Z,1008.44
2022-11-20T02:09:59.297Z,1008.43
2022-11-20T02:11:03.448Z,1008.43
2022-11-20T02:12:07.580Z,1008.42
2022-11-20T02:13:11.641Z,1008.40
2022-11-20T02:14:15.952Z,1008.39
2022-11-20T02:15:20.163Z,1008.41
2022-11-20T02:16:24.283Z,1008.40
2022-11-20T02:17:28.439Z,1008.40
2022-11-20T02:18:32.633Z,1008.40
2022-11-20T02:19:36.775Z,1008.39
2022-11-20T02:20:40.893Z,1008.39
2022-11-20T02:21:45.047Z,1008.37
2022-11-20T02:22:49.326Z,1008.38
2022-11-20T02:23:53.388Z,1008.37
2022-11-20T02:24:57.620Z,1008.36
2022-11-20T02:26:01.701Z,1008.36
2022-11-20T02:27:05.934Z,1008.36
2022-11-20T02:28:10.001Z,1008.33
2022-11-20T02:29:14.155Z,1008.31
2022-11-20T02:30:18.414Z,1008.29
2022-11-20T02:31:22.515Z,1008.29
2022-11-20T02:32:26.668Z,1008.32
2022-11-20T02:33:30.816Z,1008.29
2022-11-20T02:34:34.974Z,1008.28
2022-11-20T02:35:39.214Z,1008.29
2022-11-20T02:36:43.305Z,1008.27
2022-11-20T02:37:47.540Z,1008.29
2022-11-20T02:38:51.771Z,1008.28
2022-11-20T02:39:55.860Z,1008.29
2022-11-20T02:41:00.015Z,1008.28
2022-11-20T02:42:04.267Z,1008.28
2022-11-20T02:43:08.392Z,1008.30
2022-11-20T02:44:12.493Z,1008.27
2022-11-20T02:45:16.736Z,1008.26
2022-11-20T02:46:20.859Z,1008.26
2022-11-20T02:47:24.979Z,1008.26
2022-11-20T02:48:33.549Z,1008.26
2022-11-20T02:49:33.252Z,1008.26
2022-11-20T02:50:37.384Z,1008.28
2022-11-20T02:51:41.535Z,1008.27
2022-11-20T02:52:45.681Z,1008.26
2022-11-20T02:53:49.799Z,1008.24
2022-11-20T02:54:54.047Z,1008.26
2022-11-20T02:55:58.157Z,1008.26
2022-11-20T02:57:02.250Z,1008.23
2022-11-20T02:58:06.378Z,1008.25
2022-11-20T02:59:10.516Z,1008.23
2022-11-20T03:00:14.802Z,1008.23
2022-11-20T03:01:19.034Z,1008.22
2022-11-20T03:02:22.982Z,1008.22
2022-11-20T03:03:27.132Z,1008.21
2022-11-20T03:04:31.294Z,1008.20
2022-11-20T03:05:35.461Z,1008.21
2022-11-20T03:06:39.689Z,1008.21
2022-11-20T03:07:43.954Z,1008.19
2022-11-20T03:08:48.050Z,1008.19
2022-11-20T03:09:52.057Z,1008.22
2022-11-20T03:10:56.159Z,1008.22
2022-11-20T03:12:00.472Z,1008.23
2022-11-20T03:13:04.578Z,1008.22
2022-11-20T03:14:08.737Z,1008.22
2022-11-20T03:15:12.868Z,1008.20
2022-11-20T03:16:17.000Z,1008.19
2022-11-20T03:17:21.241Z,1008.20
2022-11-20T03:18:25.319Z,1008.17
2022-11-20T03:19:29.509Z,1008.17
2022-11-20T03:20:33.698Z,1008.17
2022-11-20T03:21:37.825Z,1008.16
2022-11-20T03:22:41.955Z,1008.17
2022-11-20T03:23:46.094Z,1008.15
2022-11-20T03:24:50.244Z,1008.16
2022-11-20T03:25:54.415Z,1008.15
2022-11-20T03:26:58.660Z,1008.16
2022-11-20T03:28:02.759Z,1008.13
2022-11-20T03:29:06.891Z,1008.13
2022-11-20T03:30:11.155Z,1008.12
2022-11-20T03:31:15.144Z,1008.15
2022-11-20T03:32:19.414Z,1008.13
2022-11-20T03:33:23.667Z,1008.12
2022-11-20T03:34:27.866Z,1008.10
2022-11-20T03:35:32.035Z,1008.10
2022-11-20T03:36:36.148Z,1008.10
2022-11-20T03:37:40.382Z,1008.10
2022-11-20T03:38:44.471Z,1008.06
2022-11-20T03:39:48.595Z,1008.08
2022-11-20T03:40:52.710Z,1008.06
2022-11-20T03:41:56.876Z,1008.07
2022-11-20T03:43:01.034Z,1008.05
2022-11-20T03:44:05.223Z,1008.05
2022-11-20T03:45:09.288Z,1008.04
2022-11-20T03:46:13.390Z,1008.03
2022-11-20T03:47:17.701Z,1008.05
2022-11-20T03:48:21.764Z,1008.04
2022-11-20T03:49:25.818Z,1008.01
2022-11-20T03:50:30.114Z,1008.01
2022-11-20T03:51:34.118Z,1007.99
2022-11-20T03:52:38.318Z,1008.00
2022-11-20T03:53:42.473Z,1007.97
2022-11-20T03:54:46.605Z,1007.96
2022-11-20T03:55:50.744Z,1007.96
2022-11-20T03:56:54.886Z,1007.94
2022-11-20T03:57:58.948Z,1007.95
2022-11-20T03:59:03.038Z,1007.93
2022-11-20T04:00:07.200Z,1007.92
2022-11-20T04:01:11.425Z,1007.95
2022-11-20T04:02:15.662Z,1007.94
2022-11-20T04:03:19.810Z,1007.94
2022-11-20T04:04:24.019Z,1007.93
2022-11-20T04:05:28.120Z,1007.92
2022-11-20T04:06:32.260Z,1007.92
2022-11-20T04:07:36.502Z,1007.95
2022-11-20T04:08:40.537Z,1007.93
2022-11-20T04:09:44.706Z,1007.91
2022-11-20T04:10:48.902Z,1007.90
2022-11-20T04:11:52.999Z,1007.88
2022-11-20T04:12:57.108Z,1007.88
2022-11-20T04:14:01.335Z,1007.87
2022-11-20T04:15:05.319Z,1007.86
2022-11-20T04:16:09.511Z,1007.83
2022-11-20T04:17:13.678Z,1007.84
2022-11-20T04:18:17.806Z,1007.87
2022-11-20T04:19:22.329Z,1007.88
2022-11-20T04:20:26.159Z,1007.89
2022-11-20T04:21:30.286Z,1007.89
2022-11-20T04:22:34.429Z,1007.87
2022-11-20T04:23:38.689Z,1007.89
2022-11-20T04:24:42.780Z,1007.90
2022-11-20T04:25:46.973Z,1007.88
2022-11-20T04:26:51.102Z,1007.89
2022-11-20T04:27:55.229Z,1007.88
2022-11-20T04:28:59.398Z,1007.89
2022-11-20T04:30:03.516Z,1007.89
2022-11-20T04:31:07.766Z,1007.87
2022-11-20T04:32:11.869Z,1007.87
2022-11-20T04:33:16.010Z,1007.85
2022-11-20T04:34:20.162Z,1007.84
2022-11-20T04:35:24.289Z,1007.83
2022-11-20T04:36:28.331Z,1007.80
2022-11-20T04:37:32.544Z,1007.80
2022-11-20T04:38:36.559Z,1007.79
2022-11-20T04:39:40.742Z,1007.81
2022-11-20T04:40:44.916Z,1007.80
2022-11-20T04:41:49.062Z,1007.80
2022-11-20T04:42:53.180Z,1007.79
2022-11-20T04:43:57.326Z,1007.77
2022-11-20T04:45:01.481Z,1007.78
2022-11-20T04:46:05.639Z,1007.77
2022-11-20T04:47:09.640Z,1007.77
2022-11-20T04:48:13.872Z,1007.78
2022-11-20T04:49:18.129Z,1007.76
2022-11-20T04:50:22.208Z,1007.75
2022-11-20T04:51:26.368Z,1007.74
2022-11-20T04:52:30.508Z,1007.73
2022-11-20T04:53:34.575Z,1007.72
2022-11-20T04:54:38.779Z,1007.72
2022-11-20T04:55:42.902Z,1007.71
2022-11-20T04:56:48.711Z,1007.71
2022-11-20T04:57:51.201Z,1007.72
2022-11-20T04:58:55.466Z,1007.73
2022-11-20T04:59:59.455Z,1007.71
2022-11-20T05:01:03.640Z,1007.70
2022-11-20T05:02:07.780Z,1007.69
2022-11-20T05:03:11.933Z,1007.66
2022-11-20T05:04:15.961Z,1007.69
2022-11-20T05:05:20.172Z,1007.69
2022-11-20T05:06:24.211Z,1007.69
2022-11-20T05:07:28.344Z,1007.67
2022-11-20T05:08:32.437Z,1007.65
2022-11-20T05:09:36.567Z,1007.65
2022-11-20T05:10:40.687Z,1007.63
2022-11-20T05:11:48.029Z,1007.60
2022-11-20T05:12:48.935Z,1007.59
2022-11-20T05:13:53.015Z,1007.60
2022-11-20T05:14:57.237Z,1007.62
2022-11-20T05:16:01.349Z,1007.61
2022-11-20T05:17:05.400Z,1007.63
2022-11-20T05:18:09.721Z,1007.65
2022-11-20T05:19:16.785Z,1007.67
2022-11-20T05:20:20.023Z,1007.66
2022-11-20T05:21:24.210Z,1007.66
2022-11-20T05:22:28.275Z,1007.65
2022-11-20T05:23:32.524Z,1007.66
2022-11-20T05:24:36.603Z,1007.64
2022-11-20T05:25:40.750Z,1007.63
2022-11-20T05:26:44.912Z,1007.63
2022-11-20T05:27:49.064Z,1007.62
2022-11-20T05:28:53.223Z,1007.61
2022-11-20T05:29:57.381Z,1007.57
2022-11-20T05:31:01.557Z,1007.57
2022-11-20T05:32:05.725Z,1007.55
2022-11-20T05:33:09.869Z,1007.53
2022-11-20T05:34:14.082Z,1007.53
2022-11-20T05:35:18.174Z,1007.50
2022-11-20T05:36:22.341Z,1007.52
2022-11-20T05:37:26.532Z,1007.51
2022-11-20T05:38:30.765Z,1007.53
2022-11-20T05:39:34.948Z,1007.52
2022-11-20T05:40:39.070Z,1007.56
2022-11-20T05:41:43.306Z,1007.54
2022-11-20T05:42:47.417Z,1007.55
2022-11-20T05:43:51.536Z,1007.52
2022-11-20T05:44:55.576Z,1007.51
2022-11-20T05:45:59.787Z,1007.50
2022-11-20T05:47:04.050Z,1007.47
2022-11-20T05:48:08.122Z,1007.47
2022-11-20T05:49:12.310Z,1007.48
2022-11-20T05:50:16.493Z,1007.47
2022-11-20T05:51:20.477Z,1007.49
2022-11-20T05:52:24.655Z,1007.47
2022-11-20T05:53:28.817Z,1007.47
2022-11-20T05:54:32.949Z,1007.43
2022-11-20T05:55:37.058Z,1007.43
2022-11-20T05:56:41.202Z,1007.41
2022-11-20T05:57:45.359Z,1007.39
2022-11-20T05:58:49.520Z,1007.40
2022-11-20T05:59:53.544Z,1007.43
2022-11-20T06:00:57.754Z,1007.42
2022-11-20T06:02:01.933Z,1007.40
2022-11-20T06:03:06.024Z,1007.39
2022-11-20T06:04:10.199Z,1007.39
2022-11-20T06:05:14.335Z,1007.36
2022-11-20T06:06:18.468Z,1007.35
2022-11-20T06:07:22.793Z,1007.35
2022-11-20T06:08:29.739Z,1007.35
2022-11-20T06:09:32.828Z,1007.33
2022-11-20T06:10:36.927Z,1007.30
2022-11-20T06:11:41.242Z,1007.31
2022-11-20T06:12:45.375Z,1007.31
2022-11-20T06:13:49.510Z,1007.31
2022-11-20T06:14:53.616Z,1007.32
2022-11-20T06:15:57.823Z,1007.33
2022-11-20T06:17:01.911Z,1007.34
2022-11-20T06:18:06.082Z,1007.33
2022-11-20T06:19:10.188Z,1007.32
2022-11-20T06:20:14.450Z,1007.32
2022-11-20T06:21:18.647Z,1007.32
2022-11-20T06:22:22.761Z,1007.32
2022-11-20T06:23:26.916Z,1007.32
2022-11-20T06:24:31.179Z,1007.33
2022-11-20T06:25:35.268Z,1007.33
2022-11-20T06:26:39.439Z,1007.31
2022-11-20T06:27:43.469Z,1007.33
2022-11-20T06:28:47.701Z,1007.31
2022-11-20T06:29:51.827Z,1007.32
2022-11-20T06:30:55.997Z,1007.31
2022-11-20T06:32:00.196Z,1007.30
2022-11-20T06:33:04.443Z,1007.33
2022-11-20T06:34:08.552Z,1007.33
2022-11-20T06:35:12.698Z,1007.34
2022-11-20T06:36:16.849Z,1007.33
2022-11-20T06:37:21.002Z,1007.30
2022-11-20T06:38:25.130Z,1007.28
2022-11-20T06:39:29.396Z,1007.28
2022-11-20T06:40:33.498Z,1007.25
2022-11-20T06:41:37.668Z,1007.26
2022-11-20T06:42:41.791Z,1007.26
2022-11-20T06:43:45.944Z,1007.23
2022-11-20T06:44:50.165Z,1007.23
2022-11-20T06:45:54.250Z,1007.21
2022-11-20T06:46:58.526Z,1007.21
2022-11-20T06:48:02.603Z,1007.20
2022-11-20T06:49:06.789Z,1007.17
2022-11-20T06:50:10.930Z,1007.15
2022-11-20T06:51:15.069Z,1007.16
2022-11-20T06:52:19.218Z,1007.17
2022-11-20T06:53:23.348Z,1007.17
2022-11-20T06:54:27.476Z,1007.18
2022-11-20T06:55:31.653Z,1007.17
2022-11-20T06:56:35.798Z,1007.15
2022-11-20T06:57:42.914Z,1007.17
2022-11-20T06:58:46.177Z,1007.16
2022-11-20T06:59:50.314Z,1007.17
2022-11-20T07:00:54.622Z,1007.19
2022-11-20T07:01:58.585Z,1007.20
2022-11-20T07:03:02.859Z,1007.18
2022-11-20T07:04:06.963Z,1007.18
2022-11-20T07:05:11.113Z,1007.17
2022-11-20T07:06:15.256Z,1007.19
2022-11-20T07:07:19.477Z,1007.16
2022-11-20T07:08:23.550Z,1007.17
2022-11-20T07:09:27.879Z,1007.17
2022-11-20T07:10:31.813Z,1007.18
2022-11-20T07:11:35.975Z,1007.20
2022-11-20T07:12:40.155Z,1007.19
2022-11-20T07:13:44.304Z,1007.18
2022-11-20T07:14:48.451Z,1007.19
2022-11-20T07:15:52.472Z,1007.18
2022-11-20T07:16:56.716Z,1007.17
2022-11-20T07:18:00.851Z,1007.17
2022-11-20T07:19:05.003Z,1007.14
2022-11-20T07:20:09.156Z,1007.13
2022-11-20T07:21:13.335Z,1007.11
2022-11-20T07:22:17.483Z,1007.10
2022-11-20T07:23:21.561Z,1007.12
2022-11-20T07:24:25.725Z,1007.12
2022-11-20T07:25:29.917Z,1007.12
2022-11-20T07:26:34.169Z,1007.12
2022-11-20T07:27:38.283Z,1007.14
2022-11-20T07:28:42.339Z,1007.12
2022-11-20T07:29:46.562Z,1007.13
2022-11-20T07:30:50.723Z,1007.13
2022-11-20T07:31:54.877Z,1007.16
2022-11-20T07:32:59.085Z,1007.13
2022-11-20T07:34:03.224Z,1007.14
2022-11-20T07:35:07.374Z,1007.13
2022-11-20T07:36:11.522Z,1007.13
2022-11-20T07:37:15.671Z,1007.13
2022-11-20T07:38:19.818Z,1007.13
2022-11-20T07:39:24.172Z,1007.13
2022-11-20T07:40:28.176Z,1007.15
2022-11-20T07:41:32.320Z,1007.14
2022-11-20T07:42:36.463Z,1007.15
2022-11-20T07:43:41.633Z,1007.13
2022-11-20T07:44:44.857Z,1007.13
2022-11-20T07:45:49.005Z,1007.13
2022-11-20T07:46:53.256Z,1007.12
2022-11-20T07:47:57.437Z,1007.12
2022-11-20T07:49:01.636Z,1007.11
2022-11-20T07:50:05.753Z,1007.12
2022-11-20T07:51:09.904Z,1007.12
2022-11-20T07:52:14.035Z,1007.13
2022-11-20T07:53:18.177Z,1007.12
2022-11-20T07:54:22.310Z,1007.13
2022-11-20T07:55:26.459Z,1007.10
2022-11-20T07:56:30.598Z,1007.12
2022-11-20T07:57:34.860Z,1007.10
2022-11-20T07:58:39.031Z,1007.10
2022-11-20T07:59:43.151Z,1007.09
2022-11-20T08:00:48.310Z,1007.11
2022-11-20T08:01:51.967Z,1007.09
2022-11-20T08:02:56.164Z,1007.10
2022-11-20T08:04:00.414Z,1007.09
2022-11-20T08:05:04.544Z,1007.10
2022-11-20T08:06:08.685Z,1007.09
2022-11-20T08:07:12.905Z,1007.10
2022-11-20T08:08:16.959Z,1007.11
2022-11-20T08:09:21.537Z,1007.09
2022-11-20T08:10:25.443Z,1007.10
2022-11-20T08:11:29.514Z,1007.07
2022-11-20T08:12:33.723Z,1007.02
2022-11-20T08:13:38.031Z,1007.02
2022-11-20T08:14:42.130Z,1007.01
2022-11-20T08:15:46.296Z,1007.04
2022-11-20T08:16:50.474Z,1007.04
2022-11-20T08:18:23.399Z,1007.04
2022-11-20T08:18:58.661Z,1007.04
2022-11-20T08:20:02.804Z,1007.02
2022-11-20T08:21:07.005Z,1007.02
2022-11-20T08:22:11.143Z,1007.02
2022-11-20T08:23:15.323Z,1007.00
2022-11-20T08:24:19.414Z,1007.00
2022-11-20T08:25:23.460Z,1006.99
2022-11-20T08:26:27.692Z,1006.98
2022-11-20T08:27:31.847Z,1006.99
2022-11-20T08:28:36.017Z,1006.98
2022-11-20T08:29:40.262Z,1006.96
2022-11-20T08:30:44.389Z,1006.95
2022-11-20T08:31:48.558Z,1006.94
2022-11-20T08:32:52.789Z,1006.95
2022-11-20T08:33:56.944Z,1006.97
2022-11-20T08:35:01.056Z,1006.97
2022-11-20T08:36:05.284Z,1006.98
2022-11-20T08:37:12.375Z,1007.01
2022-11-20T08:38:15.014Z,1006.99
2022-11-20T08:39:19.216Z,1006.99
2022-11-20T08:40:23.169Z,1007.01
2022-11-20T08:41:27.464Z,1007.00
2022-11-20T08:42:31.572Z,1007.00
2022-11-20T08:43:35.828Z,1006.99
2022-11-20T08:44:39.895Z,1007.00
2022-11-20T08:45:44.207Z,1006.99
2022-11-20T08:46:48.384Z,1007.00
2022-11-20T08:47:52.491Z,1007.00
2022-11-20T08:48:56.652Z,1006.97
2022-11-20T08:50:00.815Z,1006.99
2022-11-20T08:51:04.995Z,1006.98
2022-11-20T08:52:09.141Z,1006.99
2022-11-20T08:53:13.274Z,1006.99
2022-11-20T08:54:17.431Z,1007.02
2022-11-20T08:55:21.600Z,1007.01
2022-11-20T08:56:25.877Z,1006.99
2022-11-20T08:57:29.942Z,1007.01
2022-11-20T08:58:54.898Z,1006.99
2022-11-20T09:00:05.199Z,1006.98
2022-11-20T09:00:42.591Z,1006.99
2022-11-20T09:01:46.659Z,1007.00
2022-11-20T09:02:50.799Z,1007.01
2022-11-20T09:03:54.958Z,1007.01
2022-11-20T09:04:59.119Z,1007.02
2022-11-20T09:06:03.369Z,1007.03
2022-11-20T09:07:07.586Z,1007.02
2022-11-20T09:08:11.634Z,1007.01
2022-11-20T09:09:15.816Z,1007.02
2022-11-20T09:10:28.051Z,1007.02
2022-11-20T09:11:24.383Z,1007.01
2022-11-20T09:12:28.370Z,1007.00
2022-11-20T09:13:32.501Z,1007.00
2022-11-20T09:14:36.653Z,1006.96
2022-11-20T09:15:40.798Z,1006.97
2022-11-20T09:16:44.953Z,1006.97
2022-11-20T09:17:49.134Z,1006.95
2022-11-20T09:19:02.152Z,1006.92
2022-11-20T09:19:57.470Z,1006.94
2022-11-20T09:21:01.686Z,1006.93
2022-11-20T09:22:05.786Z,1006.95
2022-11-20T09:23:09.919Z,1006.97
2022-11-20T09:24:14.124Z,1006.97
2022-11-20T09:25:18.332Z,1006.97
2022-11-20T09:26:25.555Z,1006.96
2022-11-20T09:27:28.621Z,1006.97
2022-11-20T09:28:32.816Z,1006.95
2022-11-20T09:29:36.994Z,1006.94
2022-11-20T09:30:41.133Z,1006.92
2022-11-20T09:31:45.261Z,1006.90
2022-11-20T09:32:49.424Z,1006.89
2022-11-20T09:33:53.582Z,1006.86
2022-11-20T09:34:57.734Z,1006.85
2022-11-20T09:36:01.887Z,1006.84
2022-11-20T09:37:07.644Z,1006.84
2022-11-20T09:38:10.309Z,1006.80
2022-11-20T09:39:14.468Z,1006.79
2022-11-20T09:40:18.658Z,1006.79
2022-11-20T09:41:22.958Z,1006.78
2022-11-20T09:42:27.003Z,1006.79
2022-11-20T09:43:34.879Z,1006.79
2022-11-20T09:44:35.344Z,1006.80
2022-11-20T09:45:39.561Z,1006.80
2022-11-20T09:46:43.693Z,1006.80
2022-11-20T09:47:47.911Z,1006.78
2022-11-20T09:48:52.013Z,1006.79
2022-11-20T09:49:56.194Z,1006.77
2022-11-20T09:51:00.313Z,1006.79
2022-11-20T09:52:04.485Z,1006.78
2022-11-20T09:53:08.685Z,1006.76
2022-11-20T09:54:12.884Z,1006.77
2022-11-20T09:55:17.050Z,1006.74
2022-11-20T09:56:22.442Z,1006.72
2022-11-20T09:57:25.349Z,1006.73
2022-11-20T09:58:29.510Z,1006.73
2022-11-20T09:59:33.672Z,1006.74
2022-11-20T10:00:37.897Z,1006.74
2022-11-20T10:01:42.047Z,1006.74
2022-11-20T10:02:46.223Z,1006.74
2022-11-20T10:03:50.390Z,1006.74
2022-11-20T10:04:54.496Z,1006.74
2022-11-20T10:05:58.770Z,1006.75
2022-11-20T10:07:32.013Z,1006.79
2022-11-20T10:08:07.056Z,1006.79
2022-11-20T10:09:11.023Z,1006.78
2022-11-20T10:10:15.287Z,1006.78
2022-11-20T10:11:19.404Z,1006.77
2022-11-20T10:12:23.588Z,1006.80
2022-11-20T10:13:27.723Z,1006.79
2022-11-20T10:14:31.905Z,1006.79
2022-11-20T10:15:36.084Z,1006.80
2022-11-20T10:16:41.351Z,1006.77
2022-11-20T10:17:44.358Z,1006.77
2022-11-20T10:18:48.619Z,1006.79
2022-11-20T10:19:52.731Z,1006.77
2022-11-20T10:20:56.912Z,1006.76
2022-11-20T10:22:01.045Z,1006.76
2022-11-20T10:23:05.304Z,1006.78
2022-11-20T10:24:09.423Z,1006.78
2022-11-20T10:25:13.561Z,1006.78
2022-11-20T10:26:17.623Z,1006.77
2022-11-20T10:27:21.877Z,1006.73
2022-11-20T10:28:26.041Z,1006.74
2022-11-20T10:29:30.232Z,1006.72
2022-11-20T10:30:34.469Z,1006.74
2022-11-20T10:31:38.555Z,1006.72
2022-11-20T10:32:42.692Z,1006.67
2022-11-20T10:34:10.476Z,1006.65
2022-11-20T10:34:51.023Z,1006.63
2022-11-20T10:35:55.180Z,1006.65
2022-11-20T10:36:59.411Z,1006.64
2022-11-20T10:38:03.610Z,1006.64
2022-11-20T10:39:07.724Z,1006.64
2022-11-20T10:40:11.882Z,1006.61
2022-11-20T10:41:16.067Z,1006.58
2022-11-20T10:42:20.238Z,1006.59
2022-11-20T10:43:24.397Z,1006.58
2022-11-20T10:44:28.656Z,1006.59
2022-11-20T10:45:32.718Z,1006.59
2022-11-20T10:46:36.994Z,1006.59
2022-11-20T10:47:41.140Z,1006.61
2022-11-20T10:48:45.303Z,1006.60
2022-11-20T10:49:49.481Z,1006.60
2022-11-20T10:50:53.776Z,1006.57
2022-11-20T10:51:57.826Z,1006.58
2022-11-20T10:53:02.020Z,1006.59
2022-11-20T10:54:06.142Z,1006.56
2022-11-20T10:55:10.385Z,1006.59
2022-11-20T10:56:14.387Z,1006.58
2022-11-20T10:57:18.631Z,1006.58
2022-11-20T10:58:22.767Z,1006.58
2022-11-20T10:59:26.919Z,1006.59
2022-11-20T11:00:31.043Z,1006.59
2022-11-20T11:01:35.279Z,1006.59
2022-11-20T11:02:39.439Z,1006.60
2022-11-20T11:03:43.601Z,1006.62
2022-11-20T11:04:47.679Z,1006.60
2022-11-20T11:05:54.911Z,1006.59
2022-11-20T11:06:58.236Z,1006.62
2022-11-20T11:08:02.200Z,1006.60
2022-11-20T11:09:06.275Z,1006.62
2022-11-20T11:10:10.546Z,1006.60
2022-11-20T11:11:14.706Z,1006.61
2022-11-20T11:12:18.973Z,1006.60
2022-11-20T11:13:23.178Z,1006.60
2022-11-20T11:14:27.331Z,1006.58
2022-11-20T11:15:31.380Z,1006.57
2022-11-20T11:16:35.595Z,1006.56
2022-11-20T11:17:39.732Z,1006.57
2022-11-20T11:18:43.941Z,1006.56
2022-11-20T11:20:02.174Z,1006.57
2022-11-20T11:21:05.168Z,1006.59
2022-11-20T11:22:09.369Z,1006.59
2022-11-20T11:23:13.527Z,1006.56
2022-11-20T11:24:40.292Z,1006.60
2022-11-20T11:25:21.756Z,1006.58
2022-11-20T11:26:26.020Z,1006.55
2022-11-20T11:27:30.180Z,1006.54
2022-11-20T11:28:34.385Z,1006.52
2022-11-20T11:29:38.566Z,1006.53
2022-11-20T11:30:42.797Z,1006.50
2022-11-20T11:31:46.890Z,1006.49
2022-11-20T11:32:51.059Z,1006.46
2022-11-20T11:33:55.213Z,1006.43
2022-11-20T11:34:59.378Z,1006.43
2022-11-20T11:36:03.583Z,1006.42
2022-11-20T11:37:07.720Z,1006.41
2022-11-20T11:38:11.948Z,1006.41
2022-11-20T11:39:16.039Z,1006.40
2022-11-20T11:40:24.627Z,1006.41
2022-11-20T11:41:24.485Z,1006.43
2022-11-20T11:42:28.596Z,1006.44
2022-11-20T11:43:36.736Z,1006.44
2022-11-20T11:44:37.035Z,1006.41
2022-11-20T11:45:41.167Z,1006.42
2022-11-20T11:46:45.365Z,1006.41
2022-11-20T11:47:49.583Z,1006.43
2022-11-20T11:48:53.664Z,1006.41
2022-11-20T11:49:57.905Z,1006.39
2022-11-20T11:51:02.042Z,1006.41
2022-11-20T11:52:06.234Z,1006.43
2022-11-20T11:53:10.372Z,1006.45
2022-11-20T11:54:14.543Z,1006.46
2022-11-20T11:55:18.740Z,1006.48
2022-11-20T11:56:22.907Z,1006.51
2022-11-20T11:57:27.066Z,1006.51
2022-11-20T11:58:31.267Z,1006.51
2022-11-20T11:59:35.436Z,1006.56
2022-11-20T12:00:39.609Z,1006.57
2022-11-20T12:01:43.884Z,1006.54
2022-11-20T12:02:48.001Z,1006.51
2022-11-20T12:03:52.145Z,1006.50
2022-11-20T12:04:56.407Z,1006.47
2022-11-20T12:06:00.570Z,1006.47
2022-11-20T12:07:24.267Z,1006.45
2022-11-20T12:08:12.508Z,1006.44
2022-11-20T12:09:13.064Z,1006.43
2022-11-20T12:10:17.217Z,1006.43
2022-11-20T12:11:21.430Z,1006.43
2022-11-20T12:12:25.542Z,1006.40
2022-11-20T12:13:29.706Z,1006.41
2022-11-20T12:14:33.977Z,1006.41
2022-11-20T12:15:38.093Z,1006.40
2022-11-20T12:16:42.360Z,1006.38
2022-11-20T12:17:46.567Z,1006.38
2022-11-20T12:18:50.670Z,1006.37
2022-11-20T12:19:54.831Z,1006.38
2022-11-20T12:20:58.969Z,1006.39
2022-11-20T12:22:05.149Z,1006.39
2022-11-20T12:23:07.217Z,1006.38
2022-11-20T12:24:11.447Z,1006.40
2022-11-20T12:25:15.627Z,1006.40
2022-11-20T12:26:19.792Z,1006.40
2022-11-20T12:27:24.006Z,1006.40
2022-11-20T12:28:28.179Z,1006.40
2022-11-20T12:29:32.377Z,1006.41
2022-11-20T12:30:36.635Z,1006.39
2022-11-20T12:31:40.752Z,1006.41
2022-11-20T12:32:44.943Z,1006.39
2022-11-20T12:33:49.109Z,1006.39
2022-11-20T12:34:53.386Z,1006.36
2022-11-20T12:35:57.533Z,1006.34
2022-11-20T12:37:01.702Z,1006.31
2022-11-20T12:38:05.876Z,1006.29
2022-11-20T12:39:10.042Z,1006.28
2022-11-20T12:40:14.274Z,1006.28
2022-11-20T12:41:18.481Z,1006.25
2022-11-20T12:42:22.655Z,1006.26
2022-11-20T12:43:26.877Z,1006.26
2022-11-20T12:44:30.993Z,1006.25
2022-11-20T12:45:35.230Z,1006.25
2022-11-20T12:46:39.379Z,1006.25
2022-11-20T12:47:43.542Z,1006.24
2022-11-20T12:48:47.812Z,1006.23
2022-11-20T12:49:51.926Z,1006.23
2022-11-20T12:51:17.062Z,1006.24
2022-11-20T12:52:00.336Z,1006.23
2022-11-20T12:53:04.447Z,1006.22
2022-11-20T12:54:08.722Z,1006.21
2022-11-20T12:55:12.937Z,1006.22
2022-11-20T12:56:17.038Z,1006.21